Blaine, KY

11:39 AM EDT on July 31, 2014 (GMT -0400)
Paintsville, KY (KKYPAINT2) Elev 620 ft | 37.82 °N, 82.82 °W | Change Station

Current weather conditions updated 2 minutes ago

Clear
Clear
78.6 °F
Feels Like 80 °F
N
2.0
Wind Variable Wind from NNE
Gusts 4.0 mph

Today is forecast to be Warmer than yesterday.

Today
High -- | Low -- °F
--% Chance of Precip.
Yesterday
High -- | Low -- °F
Precip. -- in
6:33 AM 8:41 PM
Waxing Crescent, 19% visible
Pressure 30.15 in
Visibility 10.0 miles
Clouds Clear
Heat Index 80 °F
Dew Point 63 °F
Humidity 60%
Rainfall 0.00 in
Snow Depth Not available.
UV 6.0 out of 12
Pollen 5.70 out of 12
Air Quality Not available.
Flu Activity Not available.
METAR KSJS 311515Z AUTO 00000KT 10SM CLR 23/17 A3015 RMK AO2 T02310165

More Conditions Fewer Conditions

Pressure 30.15 in
Visibility 10.0 miles
Clouds Clear
Heat Index 80 °F
Dew Point 63 °F
Humidity 60%
Rainfall 0.00 in
Snow Depth Not available.
UV 6.0 out of 12
Pollen 5.70 out of 12
Air Quality Not available.
Flu Activity Not available.
METAR KSJS 311515Z AUTO 00000KT 10SM CLR 23/17 A3015 RMK AO2 T02310165

More Conditions Fewer Conditions

10-Day Weather Forecast

Almanac

Astronomy

Jul. 31, 2014 Rise Set
Actual Time 6:33 AM EDT 8:41 PM EDT
Civil Twilight 6:04 AM EDT 9:10 PM EDT
Nautical Twilight 5:28 AM EDT 9:46 PM EDT
Astronomical Twilight 4:49 AM EDT 10:25 PM EDT
Moon 10:54 AM EDT 10:59 PM EDT
Length of Visible Light 15h 06m
Length of Day
14h 08m
Tomorrow will be 1m 50s shorter.
Waxing Crescent, 19% of the Moon is Illuminated
Today
Waxing Crescent
Aug 3
First Quarter
Aug 10
Full
Aug 17
Last Quarter
Aug 25
New

Today's Extremes

State Highs State Lows

Community

WunderPhotos

Upload Photos

1,739,357 photos uploaded!

Nearby

Snow Depth

Station Depth Elevation
No new snow has been reported.

Earthquake Activity

City Distance Mag. Time & Date
No recent earthquake activity has been reported nearby.
Minimum magnitude displayed is 2.5.

Coastal Water Temperatures

Place Temperature
No Stations Reporting

Nearby Weather Stations

Station Location Temp. Heat Index Dew Point Humidity Wind Precip. Elev Updated Type
Paintsville, KY, Paintsville, KY 78.6 °F 80 °F 63 °F 60% NNE  at  2.0 mph 0.00 in / hr 620 ft 11:36 AM EDT Normal
Green, Olive Hill, KY 81.3 °F 79 °F 36 °F 20% North  at  0.0 mph 0.00 in / hr 883 ft 11:32 AM EDT Normal

Show More Stations Show Fewer Stations